Flight Track Log - Related Links

Times and Time Zones

All times are in EDT time to prevent confusion due to time zone crossing. See the AFL150 flight status page for this flight to view local times or setup timezone preferences in your user account.

Time Position Orientation Groundspeed Altitude Reporting Facility
EDT Latitude Longitude Course Direction KTS MPH feet Rate Location/Type
Sat 07:12:00 PM 22.9891 -82.4091 236° Southwest  Level Estimated
Sat 07:13:00 PM 22.9891 -82.4091 236° Southwest  Level Estimated
Sat 07:14:00 PM 22.9891 -82.4091 236° Southwest  Level Estimated
Sat 07:14:27 PM 23.4150 -81.4270 236° Southwest 304 350 11,900  Level FlightAware ADS-B
Sat 07:15:15 PM 23.3870 -81.5000 247° West 297 342 10,800 -786 Descending FlightAware ADS-B
Sat 07:15:51 PM 23.3700 -81.5420 246° West 297 342 10,800  Level FlightAware ADS-B
Sat 07:16:27 PM 23.3540 -81.5840 247° West 297 342 10,800  Level FlightAware ADS-B
Sat 07:19:00 PM 23.2168 -81.8746 243° Southwest  Level FlightAware Approximate
Sat 07:20:00 PM 23.1628 -81.9884 243° Southwest  Level FlightAware Approximate
Sat 07:21:00 PM 23.1088 -82.1022 243° Southwest  Level FlightAware Approximate
Sat 07:22:00 PM 23.0547 -82.2158 243° Southwest  Level FlightAware Approximate
Sat 07:23:00 PM 23.0005 -82.3293 243° Southwest  Level FlightAware Approximate
Sat 07:24:00 PM 22.9667 -82.4000 236° Southwest  Level FlightAware Approximate
Sat 07:25:00 PM 22.9891 -82.4091 236° Southwest  Level Estimated
Sat 07:26:00 PM 22.9891 -82.4091 236° Southwest  Level Estimated
Sat 07:27:00 PM 22.9891 -82.4091 236° Southwest  Level Estimated
Sat 07:28:00 PM 22.9891 -82.4091 236° Southwest  Level Estimated
Sat 07:29:00 PM 22.9891 -82.4091 236° Southwest  Level Estimated
Sat 07:30:00 PM 22.9891 -82.4091 236° Southwest  Level Estimated
Sat 07:31:00 PM 22.9891 -82.4091 236° Southwest  Level Estimated
Sat 07:32:00 PM 22.9891 -82.4091 236° Southwest  Level Estimated
Sat 07:33:00 PM 22.9891 -82.4091 236° Southwest  Level Estimated
Sat 07:34:00 PM 22.9891 -82.4091 236° Southwest  Level Estimated

Login

Don't have an account? Register now (free) for customized features, flight alerts, and more!